Time;durP1;ratioP1;P1;durP2;ratioP2;P2;SDS_P1;SDS_P2;PMS_P1;PMS_P2;Temp;Humidity;BMP_temperature;BMP_pressure;BME280_temperature;BME280_humidity;BME280_pressure;Samples;Min_cycle;Max_cycle;Signal;HPM_P1;HPM_P2
2023/12/26 00:00:27;;;;;;;;;;;5.90;99.90;;;;;;5034197;28;20475;-85
2023/12/26 00:02:53;;;;;;;;;;;5.90;99.90;;;;;;5033107;28;19913;-86
2023/12/26 00:05:19;;;;;;;;;;;5.80;99.90;;;;;;5033658;28;19938;-86
2023/12/26 00:07:45;;;;;;;;;;;5.80;99.90;;;;;;5032190;28;20011;-86
2023/12/26 00:10:11;;;;;;;;;;;5.80;99.90;;;;;;5032404;28;20000;-85
2023/12/26 00:12:37;;;;;;;;;;;5.80;99.90;;;;;;5032189;28;19944;-86
2023/12/26 00:15:03;;;;;;;;;;;5.80;99.90;;;;;;5038224;28;19924;-86
2023/12/26 00:17:28;;;;;;;;;;;5.80;99.90;;;;;;5033198;28;19908;-85
2023/12/26 00:19:54;;;;;;;;;;;5.80;99.90;;;;;;5016692;28;19955;-86
2023/12/26 00:22:20;;;;;;;;;;;5.80;99.90;;;;;;5032035;28;19916;-86
2023/12/26 00:24:48;;;;;;;;;;;5.80;99.90;;;;;;5015043;28;19921;-85
2023/12/26 00:27:13;;;;;;;;;;;5.80;99.90;;;;;;5031843;28;20561;-85
2023/12/26 00:29:39;;;;;;;;;;;5.80;99.90;;;;;;5031079;28;19909;-85
2023/12/26 00:32:05;;;;;;;;;;;5.90;99.90;;;;;;5031240;28;19913;-85
2023/12/26 00:34:30;;;;;;;;;;;5.80;99.90;;;;;;5031703;28;19915;-86
2023/12/26 00:36:56;;;;;;;;;;;5.80;99.90;;;;;;5031426;28;20349;-85
2023/12/26 00:39:21;;;;;;;;;;;5.90;99.90;;;;;;5014975;28;19915;-85
2023/12/26 00:41:47;;;;;;;;;;;5.80;99.90;;;;;;5028392;28;20008;-85
2023/12/26 00:44:13;;;;;;;;;;;5.90;99.90;;;;;;5030858;28;19913;-86
2023/12/26 00:46:39;;;;;;;;;;;5.80;99.90;;;;;;5030620;28;19948;-86
2023/12/26 00:49:04;;;;;;;;;;;5.80;99.90;;;;;;5013797;28;19913;-85
2023/12/26 00:51:30;;;;;;;;;;;5.80;99.90;;;;;;5030433;28;19909;-86
2023/12/26 00:53:56;;;;;;;;;;;5.80;99.90;;;;;;5031095;28;19917;-86
2023/12/26 00:56:22;;;;;;;;;;;5.80;99.90;;;;;;5031594;28;19916;-85
2023/12/26 00:58:48;;;;;;;;;;;5.80;99.90;;;;;;5031458;28;19920;-85
2023/12/26 01:01:14;;;;;;;;;;;5.80;99.90;;;;;;5047828;28;20657;-85
2023/12/26 01:03:39;;;;;;;;;;;5.80;99.90;;;;;;5031145;28;19917;-86
2023/12/26 01:06:05;;;;;;;;;;;5.80;99.90;;;;;;5030970;28;19917;-84
2023/12/26 01:08:31;;;;;;;;;;;5.70;99.90;;;;;;5035074;28;19913;-85
2023/12/26 01:10:56;;;;;;;;;;;5.70;99.90;;;;;;5018857;28;20410;-86
2023/12/26 01:13:22;;;;;;;;;;;5.70;99.90;;;;;;5036352;28;20249;-85
2023/12/26 01:15:49;;;;;;;;;;;5.70;99.90;;;;;;5035790;28;19909;-86
2023/12/26 01:21:18;;;;;;;;;;;5.60;99.90;;;;;;5051811;28;19916;-86
2023/12/26 01:23:44;;;;;;;;;;;5.70;99.90;;;;;;5018357;28;19909;-86
2023/12/26 01:26:09;;;;;;;;;;;5.70;99.90;;;;;;5034829;28;19916;-86
2023/12/26 01:28:35;;;;;;;;;;;5.70;99.90;;;;;;5034486;28;19952;-85
2023/12/26 01:31:00;;;;;;;;;;;5.70;99.90;;;;;;5034189;28;20327;-86
2023/12/26 01:33:26;;;;;;;;;;;5.70;99.90;;;;;;5034650;28;19909;-86
2023/12/26 01:35:52;;;;;;;;;;;5.70;99.90;;;;;;5034557;28;19909;-86
2023/12/26 01:38:17;;;;;;;;;;;5.60;99.90;;;;;;5034238;28;19909;-85
2023/12/26 01:40:43;;;;;;;;;;;5.60;99.90;;;;;;5034499;28;20272;-85
2023/12/26 01:43:08;;;;;;;;;;;5.70;99.90;;;;;;5035095;28;19916;-85
2023/12/26 01:45:34;;;;;;;;;;;5.60;99.90;;;;;;5032334;28;20674;-86
2023/12/26 01:48:04;;;;;;;;;;;5.60;99.90;;;;;;5033816;28;19967;-85
2023/12/26 01:50:30;;;;;;;;;;;5.70;99.90;;;;;;5033975;28;19909;-86
2023/12/26 01:52:55;;;;;;;;;;;5.70;99.90;;;;;;5033684;28;20003;-86
2023/12/26 01:55:21;;;;;;;;;;;5.70;99.90;;;;;;5033890;28;19923;-85
2023/12/26 01:57:47;;;;;;;;;;;5.70;99.90;;;;;;5033452;28;20261;-85
2023/12/26 02:00:13;;;;;;;;;;;5.70;99.90;;;;;;5033435;28;19916;-85
2023/12/26 02:02:39;;;;;;;;;;;5.70;99.90;;;;;;5033011;28;19959;-86
2023/12/26 02:05:05;;;;;;;;;;;5.70;99.90;;;;;;5033671;28;19917;-86
2023/12/26 02:07:30;;;;;;;;;;;5.60;99.90;;;;;;5033744;28;19970;-85
2023/12/26 02:09:56;;;;;;;;;;;5.70;99.90;;;;;;5033804;28;19917;-85
2023/12/26 02:12:22;;;;;;;;;;;5.70;99.90;;;;;;5016996;28;20573;-85
2023/12/26 02:14:47;;;;;;;;;;;5.70;99.90;;;;;;5033556;28;19909;-85
2023/12/26 02:20:43;;;;;;;;;;;5.70;99.90;;;;;;5035379;28;20107;-85
2023/12/26 02:23:08;;;;;;;;;;;5.70;99.90;;;;;;5017363;28;20000;-86
2023/12/26 02:25:34;;;;;;;;;;;5.70;99.90;;;;;;5033346;28;20406;-85
2023/12/26 02:28:00;;;;;;;;;;;5.70;99.90;;;;;;5034118;28;20555;-85
2023/12/26 02:30:39;;;;;;;;;;;5.70;99.90;;;;;;5033844;28;19909;-85
2023/12/26 02:33:04;;;;;;;;;;;5.70;99.90;;;;;;5033807;28;19912;-85
2023/12/26 02:35:32;;;;;;;;;;;5.70;99.90;;;;;;5034096;28;19989;-85
2023/12/26 02:38:00;;;;;;;;;;;5.70;99.90;;;;;;5034423;28;20376;-86
2023/12/26 02:40:26;;;;;;;;;;;5.70;99.90;;;;;;5034185;28;20432;-85
2023/12/26 02:42:51;;;;;;;;;;;5.70;99.90;;;;;;5033783;28;20076;-85
2023/12/26 02:45:18;;;;;;;;;;;5.70;99.90;;;;;;5034081;28;19913;-85
2023/12/26 02:47:52;;;;;;;;;;;5.70;99.90;;;;;;5033701;28;19909;-85
2023/12/26 02:50:18;;;;;;;;;;;5.70;99.90;;;;;;5040417;28;19916;-85
2023/12/26 02:52:44;;;;;;;;;;;5.80;99.90;;;;;;5034813;28;20425;-85
2023/12/26 02:55:11;;;;;;;;;;;5.80;99.90;;;;;;5017899;28;19984;-85
2023/12/26 02:57:37;;;;;;;;;;;5.90;99.90;;;;;;5034357;28;20000;-85
2023/12/26 03:00:05;;;;;;;;;;;5.90;99.90;;;;;;5033448;28;19909;-85
2023/12/26 03:02:31;;;;;;;;;;;6.00;99.90;;;;;;5033273;28;19916;-85
2023/12/26 03:04:57;;;;;;;;;;;6.00;99.90;;;;;;5033025;28;19916;-84
2023/12/26 03:07:22;;;;;;;;;;;6.00;99.90;;;;;;5032195;28;19932;-86
2023/12/26 03:09:48;;;;;;;;;;;6.00;99.90;;;;;;5032565;28;19998;-85
2023/12/26 03:12:14;;;;;;;;;;;6.00;99.90;;;;;;5032877;28;19916;-85
2023/12/26 03:14:39;;;;;;;;;;;6.00;99.90;;;;;;5032310;28;19909;-85
2023/12/26 03:17:05;;;;;;;;;;;6.00;99.90;;;;;;5032188;28;20146;-85
2023/12/26 03:19:30;;;;;;;;;;;6.00;99.90;;;;;;5016122;28;19909;-85
2023/12/26 03:21:56;;;;;;;;;;;6.00;99.90;;;;;;5032630;28;19909;-85
2023/12/26 03:24:22;;;;;;;;;;;6.00;99.90;;;;;;5032080;28;19917;-85
2023/12/26 03:26:47;;;;;;;;;;;6.00;99.90;;;;;;5032603;28;19920;-85
2023/12/26 03:29:13;;;;;;;;;;;6.00;99.90;;;;;;5049207;28;19959;-86
2023/12/26 03:31:43;;;;;;;;;;;6.00;99.90;;;;;;5032245;28;19919;-85
2023/12/26 03:34:09;;;;;;;;;;;6.10;99.90;;;;;;5032484;28;20395;-85
2023/12/26 03:36:44;;;;;;;;;;;6.10;99.90;;;;;;5032570;28;19948;-85
2023/12/26 03:39:10;;;;;;;;;;;6.10;99.90;;;;;;5032605;28;19909;-85
2023/12/26 03:41:36;;;;;;;;;;;6.00;99.90;;;;;;5032091;28;19913;-85
2023/12/26 03:44:02;;;;;;;;;;;6.00;99.90;;;;;;5032398;28;20357;-85
2023/12/26 03:46:28;;;;;;;;;;;6.00;99.90;;;;;;5032612;28;19949;-85
2023/12/26 03:48:53;;;;;;;;;;;6.00;99.90;;;;;;5032112;28;20434;-85
2023/12/26 03:51:19;;;;;;;;;;;6.00;99.90;;;;;;5015748;28;19959;-85
2023/12/26 03:53:45;;;;;;;;;;;6.00;99.90;;;;;;5032011;28;19913;-85
2023/12/26 03:56:10;;;;;;;;;;;6.00;99.90;;;;;;5031621;28;19940;-86
2023/12/26 03:58:36;;;;;;;;;;;6.00;99.90;;;;;;5029322;28;20284;-86
2023/12/26 04:01:30;;;;;;;;;;;6.00;99.90;;;;;;5031457;28;20003;-86
2023/12/26 04:03:56;;;;;;;;;;;6.00;99.90;;;;;;5031121;28;20267;-85
2023/12/26 04:06:23;;;;;;;;;;;6.00;99.90;;;;;;5031901;28;19925;-86
2023/12/26 04:08:49;;;;;;;;;;;6.10;99.90;;;;;;5031703;28;19909;-86
2023/12/26 04:11:14;;;;;;;;;;;6.10;99.90;;;;;;5048022;28;19920;-86
2023/12/26 04:13:40;;;;;;;;;;;6.10;99.90;;;;;;5030519;28;19947;-86
2023/12/26 04:16:06;;;;;;;;;;;6.10;99.90;;;;;;5031588;28;19913;-86
2023/12/26 04:18:44;;;;;;;;;;;6.10;99.90;;;;;;5031872;28;19916;-85
2023/12/26 04:21:10;;;;;;;;;;;6.10;99.90;;;;;;5031309;28;19909;-85
2023/12/26 04:23:37;;;;;;;;;;;6.10;99.90;;;;;;5031238;28;19917;-86
2023/12/26 04:26:03;;;;;;;;;;;6.10;99.90;;;;;;5031025;28;19924;-86
2023/12/26 04:28:28;;;;;;;;;;;6.10;99.90;;;;;;5031227;28;19936;-86
2023/12/26 04:30:54;;;;;;;;;;;6.10;99.90;;;;;;5030761;28;19948;-85
2023/12/26 04:33:19;;;;;;;;;;;6.10;99.90;;;;;;5031202;28;19909;-86
2023/12/26 04:35:46;;;;;;;;;;;6.10;99.90;;;;;;5031074;28;19917;-85
2023/12/26 04:38:12;;;;;;;;;;;6.00;99.90;;;;;;5031613;28;20264;-86
2023/12/26 04:40:38;;;;;;;;;;;6.00;99.90;;;;;;5031716;28;19919;-86
2023/12/26 04:43:08;;;;;;;;;;;6.00;99.90;;;;;;5031422;28;19909;-86
2023/12/26 04:45:38;;;;;;;;;;;6.00;99.90;;;;;;5031279;28;20368;-86
2023/12/26 04:48:05;;;;;;;;;;;6.00;99.90;;;;;;5031306;28;19913;-85
2023/12/26 04:50:31;;;;;;;;;;;6.00;99.90;;;;;;5031250;28;20055;-85
2023/12/26 04:52:57;;;;;;;;;;;6.00;99.90;;;;;;5031002;28;20721;-86
2023/12/26 04:55:23;;;;;;;;;;;6.00;99.90;;;;;;5030273;28;19995;-85
2023/12/26 04:57:49;;;;;;;;;;;6.00;99.90;;;;;;5030058;28;20067;-86
2023/12/26 05:00:15;;;;;;;;;;;6.00;99.90;;;;;;5030750;28;19909;-85
2023/12/26 05:02:41;;;;;;;;;;;6.00;99.90;;;;;;5026165;28;19960;-85
2023/12/26 05:05:07;;;;;;;;;;;5.90;99.90;;;;;;5030038;28;20033;-86
2023/12/26 05:07:33;;;;;;;;;;;5.90;99.90;;;;;;5030550;28;20368;-86
2023/12/26 05:09:59;;;;;;;;;;;5.90;99.90;;;;;;5030831;28;20264;-86
2023/12/26 05:12:26;;;;;;;;;;;5.90;99.90;;;;;;5029906;28;19909;-86
2023/12/26 05:14:52;;;;;;;;;;;5.90;99.90;;;;;;5030227;28;19931;-85
2023/12/26 05:17:52;;;;;;;;;;;5.90;99.90;;;;;;5029905;28;19909;-86
2023/12/26 05:20:19;;;;;;;;;;;5.90;99.90;;;;;;5029460;28;19920;-86
2023/12/26 05:22:45;;;;;;;;;;;5.80;99.90;;;;;;5030032;28;19913;-85
2023/12/26 05:25:11;;;;;;;;;;;5.80;99.90;;;;;;5030878;28;19957;-86
2023/12/26 05:27:43;;;;;;;;;;;5.90;99.90;;;;;;5030097;28;19909;-86
2023/12/26 05:30:08;;;;;;;;;;;5.80;99.90;;;;;;5030375;28;20011;-86
2023/12/26 05:32:34;;;;;;;;;;;5.80;99.90;;;;;;5030090;28;19944;-86
2023/12/26 05:35:00;;;;;;;;;;;5.80;99.90;;;;;;5030139;28;19948;-86
2023/12/26 05:37:26;;;;;;;;;;;5.80;99.90;;;;;;5030517;28;19963;-86
2023/12/26 05:39:52;;;;;;;;;;;5.80;99.90;;;;;;5013980;28;19913;-86
2023/12/26 05:42:17;;;;;;;;;;;5.80;99.90;;;;;;5029726;28;20039;-85
2023/12/26 05:44:43;;;;;;;;;;;5.80;99.90;;;;;;5029795;28;20383;-85
2023/12/26 05:47:09;;;;;;;;;;;5.80;99.90;;;;;;5029599;28;19917;-86
2023/12/26 05:49:35;;;;;;;;;;;5.80;99.90;;;;;;5030105;28;19920;-86
2023/12/26 05:52:01;;;;;;;;;;;5.80;99.90;;;;;;5030126;28;19913;-86
2023/12/26 05:54:27;;;;;;;;;;;5.90;99.90;;;;;;5033768;28;19913;-86
2023/12/26 05:56:52;;;;;;;;;;;5.90;99.90;;;;;;5034440;28;19913;-86
2023/12/26 05:59:18;;;;;;;;;;;5.90;99.90;;;;;;5034021;28;19905;-86
2023/12/26 06:01:46;;;;;;;;;;;5.80;99.90;;;;;;5034658;28;20067;-86
2023/12/26 06:04:12;;;;;;;;;;;5.80;99.90;;;;;;5034113;28;20379;-86
2023/12/26 06:06:44;;;;;;;;;;;5.80;99.90;;;;;;5033931;28;19913;-86
2023/12/26 06:09:09;;;;;;;;;;;5.80;99.90;;;;;;5031218;28;20448;-86
2023/12/26 06:12:00;;;;;;;;;;;5.80;99.90;;;;;;5050840;28;19995;-86
2023/12/26 06:14:26;;;;;;;;;;;5.90;99.90;;;;;;5042587;28;19924;-86
2023/12/26 06:17:04;;;;;;;;;;;5.90;99.90;;;;;;5018257;28;19909;-86
2023/12/26 06:19:30;;;;;;;;;;;5.80;99.90;;;;;;5034431;28;20284;-86
2023/12/26 06:21:56;;;;;;;;;;;5.90;99.90;;;;;;5033898;28;19913;-86
2023/12/26 06:24:28;;;;;;;;;;;5.90;99.90;;;;;;5034155;28;19924;-86
2023/12/26 06:26:54;;;;;;;;;;;5.80;99.90;;;;;;5017084;28;20284;-85
2023/12/26 06:29:20;;;;;;;;;;;5.80;99.90;;;;;;5033120;28;20003;-86
2023/12/26 06:31:45;;;;;;;;;;;5.90;99.90;;;;;;5033030;28;19913;-86
2023/12/26 06:34:11;;;;;;;;;;;5.80;99.90;;;;;;5033716;28;19916;-86
2023/12/26 06:36:37;;;;;;;;;;;5.80;99.90;;;;;;5016396;28;19916;-86
2023/12/26 06:39:03;;;;;;;;;;;5.80;99.90;;;;;;5033332;28;19909;-86
2023/12/26 06:41:29;;;;;;;;;;;5.80;99.90;;;;;;5033312;28;19927;-85
2023/12/26 06:43:55;;;;;;;;;;;5.80;99.90;;;;;;5033334;28;19913;-86
2023/12/26 06:46:22;;;;;;;;;;;5.80;99.90;;;;;;5032919;28;20353;-85
2023/12/26 06:48:48;;;;;;;;;;;5.80;99.90;;;;;;5033013;28;19916;-86
2023/12/26 06:51:15;;;;;;;;;;;5.90;99.90;;;;;;5016403;28;19955;-85
2023/12/26 06:53:42;;;;;;;;;;;5.90;99.90;;;;;;5032926;28;19913;-86
2023/12/26 06:56:13;;;;;;;;;;;5.90;99.90;;;;;;5032584;28;19916;-86
2023/12/26 06:58:39;;;;;;;;;;;5.90;99.90;;;;;;5016461;28;19917;-86
2023/12/26 07:01:09;;;;;;;;;;;5.90;99.90;;;;;;5032692;28;19916;-86
2023/12/26 07:03:35;;;;;;;;;;;5.80;99.90;;;;;;5032642;28;19924;-86
2023/12/26 07:06:01;;;;;;;;;;;5.90;99.90;;;;;;5032161;28;19916;-86
2023/12/26 07:08:27;;;;;;;;;;;5.90;99.90;;;;;;5032501;28;19955;-85
2023/12/26 07:10:52;;;;;;;;;;;5.90;99.90;;;;;;5032216;28;19978;-86
2023/12/26 07:13:18;;;;;;;;;;;5.90;99.90;;;;;;5032675;28;19920;-85
2023/12/26 07:15:44;;;;;;;;;;;5.90;99.90;;;;;;5028872;28;19913;-87
2023/12/26 07:18:10;;;;;;;;;;;5.80;99.90;;;;;;5032235;28;19971;-85
2023/12/26 07:20:35;;;;;;;;;;;5.90;99.90;;;;;;5032139;28;20710;-85
2023/12/26 07:23:01;;;;;;;;;;;5.90;99.90;;;;;;5031872;28;19909;-85
2023/12/26 07:25:29;;;;;;;;;;;5.90;99.90;;;;;;5031484;28;19990;-85
2023/12/26 07:31:23;;;;;;;;;;;6.00;99.90;;;;;;5034011;28;19916;-86
2023/12/26 07:33:51;;;;;;;;;;;6.00;99.90;;;;;;5032531;28;20495;-86
2023/12/26 07:36:17;;;;;;;;;;;6.00;99.90;;;;;;5031792;28;19913;-85
2023/12/26 07:38:43;;;;;;;;;;;6.00;99.90;;;;;;5031902;28;19920;-85
2023/12/26 07:41:08;;;;;;;;;;;6.00;99.90;;;;;;5031832;28;19912;-85
2023/12/26 07:43:34;;;;;;;;;;;6.00;99.90;;;;;;5030909;28;20300;-86
2023/12/26 07:46:00;;;;;;;;;;;6.00;99.90;;;;;;5031805;28;20004;-85
2023/12/26 07:48:26;;;;;;;;;;;6.00;99.90;;;;;;5031859;28;19921;-86
2023/12/26 07:50:51;;;;;;;;;;;6.10;99.90;;;;;;5031282;28;19905;-85
2023/12/26 07:53:17;;;;;;;;;;;6.00;99.90;;;;;;5015286;28;19959;-85
2023/12/26 07:55:42;;;;;;;;;;;6.00;99.90;;;;;;5031763;28;20012;-85
2023/12/26 07:58:08;;;;;;;;;;;6.00;99.90;;;;;;5032039;28;19964;-85
2023/12/26 08:00:34;;;;;;;;;;;6.00;99.90;;;;;;5031830;28;19920;-85
2023/12/26 08:03:00;;;;;;;;;;;6.00;99.90;;;;;;5031382;28;19913;-85
2023/12/26 08:05:26;;;;;;;;;;;6.00;99.90;;;;;;5031441;28;19967;-86
2023/12/26 08:07:52;;;;;;;;;;;6.00;99.90;;;;;;5031620;28;19913;-85
2023/12/26 08:10:18;;;;;;;;;;;6.00;99.90;;;;;;5031047;28;19909;-86
2023/12/26 08:12:44;;;;;;;;;;;6.00;99.90;;;;;;5016406;28;19917;-85
2023/12/26 08:15:10;;;;;;;;;;;6.10;99.90;;;;;;5032549;28;19931;-86
2023/12/26 08:17:36;;;;;;;;;;;6.00;99.90;;;;;;5031234;28;19917;-85
2023/12/26 08:20:02;;;;;;;;;;;6.10;99.90;;;;;;5031554;28;19920;-86
2023/12/26 08:22:29;;;;;;;;;;;6.10;99.90;;;;;;5031330;28;19996;-86
2023/12/26 08:24:55;;;;;;;;;;;6.20;99.90;;;;;;5014369;28;20386;-86
2023/12/26 08:30:48;;;;;;;;;;;6.20;99.90;;;;;;5031755;28;19916;-85
2023/12/26 08:33:17;;;;;;;;;;;6.20;99.90;;;;;;5030781;28;19909;-86
2023/12/26 08:35:43;;;;;;;;;;;6.30;99.90;;;;;;5030981;28;19913;-86
2023/12/26 08:38:08;;;;;;;;;;;6.30;99.90;;;;;;5030061;28;19931;-86
2023/12/26 08:40:34;;;;;;;;;;;6.30;99.90;;;;;;5030600;28;19905;-85
2023/12/26 08:43:15;;;;;;;;;;;6.30;99.90;;;;;;5031351;28;20254;-85
2023/12/26 08:45:41;;;;;;;;;;;6.30;99.90;;;;;;5030175;28;19916;-86
2023/12/26 08:48:07;;;;;;;;;;;6.30;99.90;;;;;;5030085;28;19920;-84
2023/12/26 08:50:32;;;;;;;;;;;6.30;99.90;;;;;;5029869;28;19917;-85
2023/12/26 08:52:58;;;;;;;;;;;6.40;99.90;;;;;;5030460;28;19909;-85
2023/12/26 08:55:24;;;;;;;;;;;6.40;99.90;;;;;;5030644;28;20638;-85
2023/12/26 08:57:49;;;;;;;;;;;6.40;99.90;;;;;;5030410;28;20340;-86
2023/12/26 09:00:15;;;;;;;;;;;6.40;99.90;;;;;;5046800;28;19913;-86
2023/12/26 09:02:42;;;;;;;;;;;6.40;99.90;;;;;;5029625;28;20323;-86
2023/12/26 09:05:08;;;;;;;;;;;6.40;99.90;;;;;;5029925;28;19952;-86
2023/12/26 09:07:33;;;;;;;;;;;6.30;99.90;;;;;;5030181;28;20016;-86
2023/12/26 09:10:00;;;;;;;;;;;6.40;99.90;;;;;;5013669;28;19909;-86
2023/12/26 09:12:26;;;;;;;;;;;6.40;99.90;;;;;;5030263;28;19917;-87
2023/12/26 09:14:52;;;;;;;;;;;6.40;99.90;;;;;;5029328;28;19916;-86
2023/12/26 09:17:17;;;;;;;;;;;6.40;99.90;;;;;;5013919;28;20375;-86
2023/12/26 09:19:43;;;;;;;;;;;6.40;99.90;;;;;;5047015;28;19913;-86
2023/12/26 09:22:09;;;;;;;;;;;6.40;99.90;;;;;;5030514;28;19909;-86
2023/12/26 09:24:34;;;;;;;;;;;6.40;99.90;;;;;;5030155;28;19920;-86
2023/12/26 09:27:00;;;;;;;;;;;6.40;99.90;;;;;;5031087;28;19913;-85
2023/12/26 09:29:26;;;;;;;;;;;6.40;99.90;;;;;;5034496;28;19959;-86
2023/12/26 09:31:53;;;;;;;;;;;6.30;99.90;;;;;;5036503;28;19909;-86
2023/12/26 09:34:18;;;;;;;;;;;6.40;99.90;;;;;;5034500;28;20406;-86
2023/12/26 09:36:44;;;;;;;;;;;6.30;99.90;;;;;;5035713;28;19955;-86
2023/12/26 09:39:09;;;;;;;;;;;6.40;99.90;;;;;;5018462;28;19913;-86
2023/12/26 09:41:35;;;;;;;;;;;6.40;99.90;;;;;;5034913;28;19916;-85
2023/12/26 09:44:01;;;;;;;;;;;6.40;99.90;;;;;;5042778;28;19955;-86
2023/12/26 09:46:28;;;;;;;;;;;6.30;99.90;;;;;;5035729;28;19917;-85
2023/12/26 09:48:54;;;;;;;;;;;6.30;99.90;;;;;;5035473;28;20382;-85
2023/12/26 09:51:23;;;;;;;;;;;6.30;99.90;;;;;;5034714;28;19999;-85
2023/12/26 09:53:57;;;;;;;;;;;6.30;99.90;;;;;;5035110;28;20010;-85
2023/12/26 09:56:27;;;;;;;;;;;6.30;99.90;;;;;;5034606;28;19909;-85
2023/12/26 09:58:54;;;;;;;;;;;6.30;99.90;;;;;;5034736;28;20582;-85
2023/12/26 10:01:35;;;;;;;;;;;6.30;99.90;;;;;;5034743;28;20340;-86
2023/12/26 10:04:03;;;;;;;;;;;6.30;99.90;;;;;;5034764;28;19913;-85
2023/12/26 10:06:29;;;;;;;;;;;6.30;99.90;;;;;;5051420;28;19909;-85
2023/12/26 10:08:54;;;;;;;;;;;6.30;99.90;;;;;;5037211;28;19916;-86
2023/12/26 10:11:21;;;;;;;;;;;6.30;99.90;;;;;;5035027;28;19905;-86
2023/12/26 10:13:52;;;;;;;;;;;6.30;99.90;;;;;;5018381;28;19909;-86
2023/12/26 10:16:18;;;;;;;;;;;6.20;99.90;;;;;;5034558;28;19985;-86
2023/12/26 10:18:44;;;;;;;;;;;6.30;99.90;;;;;;5034761;28;19919;-86
2023/12/26 10:21:11;;;;;;;;;;;6.30;99.90;;;;;;5018252;28;20302;-86
2023/12/26 10:23:36;;;;;;;;;;;6.30;99.90;;;;;;5034043;28;19938;-85
2023/12/26 10:26:02;;;;;;;;;;;6.30;99.90;;;;;;5034162;28;19924;-86
2023/12/26 10:28:28;;;;;;;;;;;6.20;99.90;;;;;;5034817;28;19909;-85
2023/12/26 10:30:55;;;;;;;;;;;6.20;99.90;;;;;;5034817;28;19909;-85
2023/12/26 10:33:25;;;;;;;;;;;6.20;99.90;;;;;;5035065;28;20645;-85
2023/12/26 10:36:03;;;;;;;;;;;6.30;99.90;;;;;;5035693;28;20360;-86
2023/12/26 10:38:29;;;;;;;;;;;6.30;99.90;;;;;;5051205;28;19913;-87
2023/12/26 10:40:56;;;;;;;;;;;6.20;99.90;;;;;;5033747;28;19917;-85
2023/12/26 10:43:22;;;;;;;;;;;6.20;99.90;;;;;;5031642;28;19917;-85
2023/12/26 10:45:49;;;;;;;;;;;6.20;99.90;;;;;;5035698;28;19923;-88
2023/12/26 10:48:16;;;;;;;;;;;6.20;99.90;;;;;;5051010;28;19912;-86
2023/12/26 10:50:42;;;;;;;;;;;6.20;99.90;;;;;;5035846;28;20380;-86
2023/12/26 10:53:16;;;;;;;;;;;6.20;99.90;;;;;;5044432;28;19917;-88
2023/12/26 10:55:43;;;;;;;;;;;6.20;99.90;;;;;;5046437;28;20237;-89
2023/12/26 10:58:16;;;;;;;;;;;6.20;99.90;;;;;;5048332;28;19909;-89
2023/12/26 13:52:49;;;;;;;;;;;6.20;99.90;;;;;;5032579;28;19943;-89
2023/12/26 13:55:33;;;;;;;;;;;6.30;99.90;;;;;;5031130;28;20640;-88
2023/12/26 13:58:18;;;;;;;;;;;6.40;99.90;;;;;;5031073;28;19944;-88
2023/12/26 14:01:03;;;;;;;;;;;6.40;99.90;;;;;;5031173;28;19913;-87
2023/12/26 14:03:50;;;;;;;;;;;6.40;99.90;;;;;;5031671;28;20357;-88
2023/12/26 14:06:35;;;;;;;;;;;6.40;99.90;;;;;;5031012;28;20004;-88
2023/12/26 14:09:19;;;;;;;;;;;6.40;99.90;;;;;;5030969;28;19909;-88
2023/12/26 14:12:04;;;;;;;;;;;6.40;99.90;;;;;;5030817;28;19952;-88
2023/12/26 14:14:49;;;;;;;;;;;6.40;99.90;;;;;;5032528;28;19955;-87
2023/12/26 14:17:33;;;;;;;;;;;6.30;99.90;;;;;;5034570;28;19909;-87
2023/12/26 14:20:17;;;;;;;;;;;6.30;99.90;;;;;;5034156;28;19909;-88
2023/12/26 14:23:02;;;;;;;;;;;6.30;99.90;;;;;;5034276;28;19909;-88
2023/12/26 14:25:46;;;;;;;;;;;6.30;99.90;;;;;;5050862;28;19940;-87
2023/12/26 14:28:31;;;;;;;;;;;6.30;99.90;;;;;;5034276;28;20352;-88
2023/12/26 14:31:15;;;;;;;;;;;6.30;99.90;;;;;;5049910;28;19971;-87
2023/12/26 14:33:59;;;;;;;;;;;6.30;99.90;;;;;;5034082;28;20047;-87
2023/12/26 14:36:45;;;;;;;;;;;6.30;99.90;;;;;;5051311;28;19960;-88
2023/12/26 14:39:29;;;;;;;;;;;6.30;99.90;;;;;;5034185;28;19909;-87
2023/12/26 14:42:20;;;;;;;;;;;6.30;99.90;;;;;;5034007;28;19909;-88
2023/12/26 14:45:04;;;;;;;;;;;6.30;99.90;;;;;;5040379;28;19916;-87
2023/12/26 14:47:49;;;;;;;;;;;6.30;99.90;;;;;;5034889;28;19909;-87
2023/12/26 14:50:33;;;;;;;;;;;6.30;99.90;;;;;;5034010;28;19924;-87
2023/12/26 14:53:18;;;;;;;;;;;6.30;99.90;;;;;;5034189;28;20390;-88
2023/12/26 14:56:03;;;;;;;;;;;6.30;99.90;;;;;;5034460;28;20583;-88
2023/12/26 14:58:47;;;;;;;;;;;6.30;99.90;;;;;;5035339;28;20004;-87
2023/12/26 15:01:32;;;;;;;;;;;6.30;99.90;;;;;;5035008;28;19916;-88
2023/12/26 15:03:57;;;;;;;;;;;6.30;99.90;;;;;;5035006;28;20684;-88
2023/12/26 15:06:24;;;;;;;;;;;6.30;99.90;;;;;;5001375;28;19943;-87
2023/12/26 15:12:18;;;;;;;;;;;6.30;99.90;;;;;;5034823;28;20324;-88
2023/12/26 15:14:44;;;;;;;;;;;6.40;99.90;;;;;;5033434;28;20028;-87
2023/12/26 15:17:10;;;;;;;;;;;6.40;99.90;;;;;;5032569;28;20035;-86
2023/12/26 15:23:04;;;;;;;;;;;6.40;99.90;;;;;;5034974;28;19967;-87
2023/12/26 15:25:35;;;;;;;;;;;6.40;99.90;;;;;;5033052;28;19952;-87
2023/12/26 15:28:01;;;;;;;;;;;6.40;99.90;;;;;;5033676;28;19962;-87
2023/12/26 15:30:26;;;;;;;;;;;6.40;99.90;;;;;;5017429;28;19963;-88
2023/12/26 15:32:55;;;;;;;;;;;6.40;99.90;;;;;;5033270;28;20352;-87
2023/12/26 15:35:20;;;;;;;;;;;6.40;99.90;;;;;;5033054;28;19909;-88
2023/12/26 15:37:46;;;;;;;;;;;6.40;99.90;;;;;;5032994;28;19916;-88
2023/12/26 15:40:12;;;;;;;;;;;6.40;99.90;;;;;;5033076;28;20012;-87
2023/12/26 15:42:38;;;;;;;;;;;6.40;99.90;;;;;;5033267;28;20030;-88
2023/12/26 15:45:04;;;;;;;;;;;6.40;99.90;;;;;;5033768;28;19959;-88
2023/12/26 15:47:29;;;;;;;;;;;6.40;99.90;;;;;;5017101;28;20042;-88
2023/12/26 15:49:55;;;;;;;;;;;6.30;99.90;;;;;;5033501;28;20402;-87
2023/12/26 15:52:20;;;;;;;;;;;6.30;99.90;;;;;;5032960;28;19916;-88
2023/12/26 15:54:46;;;;;;;;;;;6.30;99.90;;;;;;5049490;28;20409;-87
2023/12/26 15:57:12;;;;;;;;;;;6.30;99.90;;;;;;5032852;28;19916;-87
2023/12/26 15:59:37;;;;;;;;;;;6.30;99.90;;;;;;5033113;28;19954;-87
2023/12/26 16:02:03;;;;;;;;;;;6.30;99.90;;;;;;5015886;28;20003;-87
2023/12/26 16:04:28;;;;;;;;;;;6.30;99.90;;;;;;5033005;28;19913;-87
2023/12/26 16:06:54;;;;;;;;;;;6.30;99.90;;;;;;5033108;28;19913;-87
2023/12/26 16:09:22;;;;;;;;;;;6.30;99.90;;;;;;5032519;28;19939;-87
2023/12/26 16:11:47;;;;;;;;;;;6.30;99.90;;;;;;5033545;28;19909;-88
2023/12/26 16:14:13;;;;;;;;;;;6.30;99.90;;;;;;5049760;28;19935;-88
2023/12/26 16:16:39;;;;;;;;;;;6.20;99.90;;;;;;5015889;28;19912;-87
2023/12/26 16:19:05;;;;;;;;;;;6.30;99.90;;;;;;5032752;28;20387;-88
2023/12/26 16:21:31;;;;;;;;;;;6.30;99.90;;;;;;5032963;28;20007;-88
2023/12/26 16:23:56;;;;;;;;;;;6.30;99.90;;;;;;5032636;28;19963;-88
2023/12/26 16:26:22;;;;;;;;;;;6.30;99.90;;;;;;5032284;28;20339;-88
2023/12/26 16:28:52;;;;;;;;;;;6.20;99.90;;;;;;5033102;28;20008;-88
2023/12/26 16:31:17;;;;;;;;;;;6.30;99.90;;;;;;5016203;28;20020;-87
2023/12/26 16:33:43;;;;;;;;;;;6.30;99.90;;;;;;5032060;28;19971;-87
2023/12/26 16:36:09;;;;;;;;;;;6.30;99.90;;;;;;5032294;28;19909;-88
2023/12/26 16:38:35;;;;;;;;;;;6.30;99.90;;;;;;5031537;28;19963;-88
2023/12/26 16:41:07;;;;;;;;;;;6.30;99.90;;;;;;5031903;28;20213;-88
2023/12/26 16:43:33;;;;;;;;;;;6.30;99.90;;;;;;5032214;28;19909;-87
2023/12/26 16:45:59;;;;;;;;;;;6.30;99.90;;;;;;5031952;28;19920;-88
2023/12/26 16:48:24;;;;;;;;;;;6.30;99.90;;;;;;5032073;28;20352;-88
2023/12/26 16:50:50;;;;;;;;;;;6.30;99.90;;;;;;5032244;28;19958;-88
2023/12/26 16:53:16;;;;;;;;;;;6.30;99.90;;;;;;5031701;28;19970;-88
2023/12/26 16:55:41;;;;;;;;;;;6.30;99.90;;;;;;5032461;28;19913;-88
2023/12/26 16:58:07;;;;;;;;;;;6.30;99.90;;;;;;5032682;28;20008;-87
2023/12/26 17:00:33;;;;;;;;;;;6.30;99.90;;;;;;5032584;28;20379;-88
2023/12/26 17:02:58;;;;;;;;;;;6.30;99.90;;;;;;5032034;28;20319;-88
2023/12/26 17:05:26;;;;;;;;;;;6.30;99.90;;;;;;5032546;28;19959;-88
2023/12/26 17:07:52;;;;;;;;;;;6.30;99.90;;;;;;5015314;28;19909;-87
2023/12/26 17:10:17;;;;;;;;;;;6.30;99.90;;;;;;5032380;28;19909;-88
2023/12/26 17:12:43;;;;;;;;;;;6.30;99.90;;;;;;5032622;28;20403;-87
2023/12/26 17:15:10;;;;;;;;;;;6.30;99.90;;;;;;5015147;28;20310;-88
2023/12/26 17:17:35;;;;;;;;;;;6.30;99.90;;;;;;5032263;28;20663;-88
2023/12/26 17:20:01;;;;;;;;;;;6.30;99.90;;;;;;5031834;28;19909;-88
2023/12/26 17:22:27;;;;;;;;;;;6.30;99.90;;;;;;5031496;28;19909;-88
2023/12/26 17:24:52;;;;;;;;;;;6.30;99.90;;;;;;5032075;28;19963;-87
2023/12/26 17:27:37;;;;;;;;;;;6.30;99.90;;;;;;5031741;28;19905;-88
2023/12/26 17:30:04;;;;;;;;;;;6.30;99.90;;;;;;5031948;28;19909;-88
2023/12/26 17:32:29;;;;;;;;;;;6.30;99.90;;;;;;5032098;28;19905;-88
2023/12/26 17:34:56;;;;;;;;;;;6.30;99.90;;;;;;5031795;28;19924;-88
2023/12/26 17:37:22;;;;;;;;;;;6.30;99.90;;;;;;5031859;28;19955;-88
2023/12/26 17:39:48;;;;;;;;;;;6.30;99.90;;;;;;5032488;28;19948;-87
2023/12/26 17:42:13;;;;;;;;;;;6.30;99.90;;;;;;5031778;28;19916;-88
2023/12/26 17:44:41;;;;;;;;;;;6.30;99.90;;;;;;5032349;28;19913;-87
2023/12/26 17:47:07;;;;;;;;;;;6.20;99.90;;;;;;5032481;28;19915;-88